sensor_id;sensor_type;location;lat;lon;timestamp;temperature;humidity
19263;DHT22;9765;52.354;20.884;2022-10-19T06:08:09;10.30;99.90
19263;DHT22;9765;52.354;20.884;2022-10-19T06:10:36;10.20;99.90
19263;DHT22;9765;52.354;20.884;2022-10-19T06:13:02;10.40;99.90
19263;DHT22;9765;52.354;20.884;2022-10-19T06:15:32;10.50;99.90
19263;DHT22;9765;52.354;20.884;2022-10-19T06:17:58;10.50;99.90
19263;DHT22;9765;52.354;20.884;2022-10-19T06:20:25;10.60;99.90
19263;DHT22;9765;52.354;20.884;2022-10-19T06:22:53;10.60;99.90
19263;DHT22;9765;52.354;20.884;2022-10-19T06:25:24;10.70;99.90
19263;DHT22;9765;52.354;20.884;2022-10-19T06:27:51;10.80;99.90
19263;DHT22;9765;52.354;20.884;2022-10-19T06:30:18;10.80;99.90
19263;DHT22;9765;52.354;20.884;2022-10-19T06:32:44;11.40;99.90
19263;DHT22;9765;52.354;20.884;2022-10-19T06:35:11;11.20;99.90
19263;DHT22;9765;52.354;20.884;2022-10-19T06:37:38;10.90;99.90
19263;DHT22;9765;52.354;20.884;2022-10-19T06:40:05;10.90;99.90
19263;DHT22;9765;52.354;20.884;2022-10-19T06:42:33;10.90;99.90
19263;DHT22;9765;52.354;20.884;2022-10-19T06:45:04;10.90;99.90
19263;DHT22;9765;52.354;20.884;2022-10-19T06:47:30;10.90;99.90
19263;DHT22;9765;52.354;20.884;2022-10-19T06:49:59;10.90;99.90
19263;DHT22;9765;52.354;20.884;2022-10-19T06:52:26;11.00;99.90
19263;DHT22;9765;52.354;20.884;2022-10-19T06:54:53;11.00;99.90
19263;DHT22;9765;52.354;20.884;2022-10-19T06:57:19;11.00;99.90
19263;DHT22;9765;52.354;20.884;2022-10-19T06:59:48;11.00;99.90
19263;DHT22;9765;52.354;20.884;2022-10-19T07:02:15;11.00;99.90
19263;DHT22;9765;52.354;20.884;2022-10-19T07:04:42;11.10;99.90
19263;DHT22;9765;52.354;20.884;2022-10-19T07:07:09;11.10;99.90
19263;DHT22;9765;52.354;20.884;2022-10-19T07:09:35;11.20;99.90
19263;DHT22;9765;52.354;20.884;2022-10-19T07:12:02;11.20;99.90
19263;DHT22;9765;52.354;20.884;2022-10-19T07:14:29;11.20;99.90
19263;DHT22;9765;52.354;20.884;2022-10-19T07:16:57;11.20;99.90
19263;DHT22;9765;52.354;20.884;2022-10-19T07:19:24;11.30;99.90
19263;DHT22;9765;52.354;20.884;2022-10-19T07:21:53;11.30;99.90
19263;DHT22;9765;52.354;20.884;2022-10-19T07:24:22;11.40;99.90
19263;DHT22;9765;52.354;20.884;2022-10-19T07:26:48;11.50;99.90
19263;DHT22;9765;52.354;20.884;2022-10-19T07:29:15;11.60;99.90
19263;DHT22;9765;52.354;20.884;2022-10-19T07:31:42;11.60;99.90
19263;DHT22;9765;52.354;20.884;2022-10-19T07:34:12;11.60;99.90
19263;DHT22;9765;52.354;20.884;2022-10-19T07:36:39;11.60;99.90
19263;DHT22;9765;52.354;20.884;2022-10-19T07:39:10;11.70;99.90
19263;DHT22;9765;52.354;20.884;2022-10-19T07:41:41;11.70;99.90
19263;DHT22;9765;52.354;20.884;2022-10-19T07:44:08;11.70;99.90
19263;DHT22;9765;52.354;20.884;2022-10-19T07:46:35;11.70;99.90
19263;DHT22;9765;52.354;20.884;2022-10-19T07:49:05;11.80;99.90
19263;DHT22;9765;52.354;20.884;2022-10-19T07:51:34;11.90;99.90
19263;DHT22;9765;52.354;20.884;2022-10-19T07:54:01;11.80;99.90
19263;DHT22;9765;52.354;20.884;2022-10-19T07:56:28;11.90;99.90
19263;DHT22;9765;52.354;20.884;2022-10-19T07:58:56;11.90;99.90
19263;DHT22;9765;52.354;20.884;2022-10-19T08:01:25;12.00;99.90
19263;DHT22;9765;52.354;20.884;2022-10-19T08:03:52;12.00;99.90
19263;DHT22;9765;52.354;20.884;2022-10-19T08:06:20;12.10;99.90
19263;DHT22;9765;52.354;20.884;2022-10-19T08:08:48;12.10;99.90
19263;DHT22;9765;52.354;20.884;2022-10-19T08:11:18;12.00;99.90
19263;DHT22;9765;52.354;20.884;2022-10-19T08:13:45;12.00;99.90
19263;DHT22;9765;52.354;20.884;2022-10-19T08:16:22;11.90;99.90
19263;DHT22;9765;52.354;20.884;2022-10-19T08:18:49;11.90;99.90
19263;DHT22;9765;52.354;20.884;2022-10-19T08:21:16;11.70;99.90
19263;DHT22;9765;52.354;20.884;2022-10-19T08:23:43;11.70;99.90
19263;DHT22;9765;52.354;20.884;2022-10-19T08:26:11;11.70;99.90
19263;DHT22;9765;52.354;20.884;2022-10-19T08:28:37;11.80;99.90
19263;DHT22;9765;52.354;20.884;2022-10-19T08:31:11;11.70;99.90
19263;DHT22;9765;52.354;20.884;2022-10-19T08:33:38;11.70;99.90
19263;DHT22;9765;52.354;20.884;2022-10-19T08:36:06;11.70;99.90
19263;DHT22;9765;52.354;20.884;2022-10-19T08:38:34;11.60;99.90
19263;DHT22;9765;52.354;20.884;2022-10-19T08:41:07;11.70;99.90
19263;DHT22;9765;52.354;20.884;2022-10-19T08:43:39;11.70;99.90
19263;DHT22;9765;52.354;20.884;2022-10-19T08:46:11;11.70;99.90
19263;DHT22;9765;52.354;20.884;2022-10-19T08:48:46;11.70;99.90
19263;DHT22;9765;52.354;20.884;2022-10-19T08:51:13;11.70;99.90
19263;DHT22;9765;52.354;20.884;2022-10-19T08:53:45;11.70;99.90
19263;DHT22;9765;52.354;20.884;2022-10-19T08:56:22;11.70;99.90
19263;DHT22;9765;52.354;20.884;2022-10-19T08:59:00;11.70;99.90
19263;DHT22;9765;52.354;20.884;2022-10-19T09:01:36;11.70;99.90
19263;DHT22;9765;52.354;20.884;2022-10-19T09:04:11;12.40;99.90
19263;DHT22;9765;52.354;20.884;2022-10-19T09:06:50;11.80;99.90
19263;DHT22;9765;52.354;20.884;2022-10-19T09:09:21;11.80;99.90
19263;DHT22;9765;52.354;20.884;2022-10-19T09:11:52;11.90;99.90
19263;DHT22;9765;52.354;20.884;2022-10-19T09:14:26;11.90;99.90
19263;DHT22;9765;52.354;20.884;2022-10-19T09:16:58;12.00;99.90
19263;DHT22;9765;52.354;20.884;2022-10-19T09:19:27;12.10;99.90
19263;DHT22;9765;52.354;20.884;2022-10-19T09:21:57;12.10;99.90
19263;DHT22;9765;52.354;20.884;2022-10-19T09:24:34;12.20;99.90
19263;DHT22;9765;52.354;20.884;2022-10-19T09:27:06;12.20;99.90
19263;DHT22;9765;52.354;20.884;2022-10-19T09:29:40;12.20;99.90
19263;DHT22;9765;52.354;20.884;2022-10-19T09:32:12;12.30;99.90
19263;DHT22;9765;52.354;20.884;2022-10-19T09:34:43;12.30;99.90
19263;DHT22;9765;52.354;20.884;2022-10-19T09:37:13;12.40;99.90
19263;DHT22;9765;52.354;20.884;2022-10-19T09:39:40;12.50;99.90
19263;DHT22;9765;52.354;20.884;2022-10-19T09:42:09;12.60;99.90
19263;DHT22;9765;52.354;20.884;2022-10-19T09:44:37;12.60;99.90
19263;DHT22;9765;52.354;20.884;2022-10-19T09:47:16;12.60;99.90
19263;DHT22;9765;52.354;20.884;2022-10-19T09:49:49;12.50;99.90
19263;DHT22;9765;52.354;20.884;2022-10-19T09:52:23;12.70;99.90
19263;DHT22;9765;52.354;20.884;2022-10-19T09:55:01;11.90;99.90
19263;DHT22;9765;52.354;20.884;2022-10-19T09:57:28;11.60;99.90
19263;DHT22;9765;52.354;20.884;2022-10-19T09:59:57;11.50;99.90
19263;DHT22;9765;52.354;20.884;2022-10-19T10:02:29;11.40;99.90
19263;DHT22;9765;52.354;20.884;2022-10-19T10:05:03;11.40;99.90
19263;DHT22;9765;52.354;20.884;2022-10-19T10:07:34;11.40;99.90
19263;DHT22;9765;52.354;20.884;2022-10-19T10:10:02;11.40;99.90
19263;DHT22;9765;52.354;20.884;2022-10-19T10:12:28;11.30;99.90
19263;DHT22;9765;52.354;20.884;2022-10-19T10:14:56;11.30;99.90
19263;DHT22;9765;52.354;20.884;2022-10-19T10:17:27;11.40;99.90
19263;DHT22;9765;52.354;20.884;2022-10-19T10:20:06;11.40;99.90
19263;DHT22;9765;52.354;20.884;2022-10-19T10:22:52;11.40;99.90
19263;DHT22;9765;52.354;20.884;2022-10-19T10:25:24;11.90;99.90
19263;DHT22;9765;52.354;20.884;2022-10-19T10:27:57;11.60;99.90
19263;DHT22;9765;52.354;20.884;2022-10-19T10:30:28;12.40;99.90
19263;DHT22;9765;52.354;20.884;2022-10-19T10:32:56;11.90;99.90
19263;DHT22;9765;52.354;20.884;2022-10-19T10:35:26;12.20;99.90
19263;DHT22;9765;52.354;20.884;2022-10-19T10:38:05;12.40;99.90
19263;DHT22;9765;52.354;20.884;2022-10-19T10:40:32;12.50;99.90
19263;DHT22;9765;52.354;20.884;2022-10-19T10:43:03;12.40;99.90
19263;DHT22;9765;52.354;20.884;2022-10-19T10:45:36;12.40;99.90
19263;DHT22;9765;52.354;20.884;2022-10-19T10:48:13;12.40;99.90
19263;DHT22;9765;52.354;20.884;2022-10-19T10:50:42;12.40;99.90
19263;DHT22;9765;52.354;20.884;2022-10-19T10:53:31;12.50;99.90
19263;DHT22;9765;52.354;20.884;2022-10-19T10:55:59;12.60;99.90
19263;DHT22;9765;52.354;20.884;2022-10-19T10:58:35;12.60;99.90
19263;DHT22;9765;52.354;20.884;2022-10-19T11:01:11;12.60;99.90
19263;DHT22;9765;52.354;20.884;2022-10-19T11:03:49;12.60;99.90
19263;DHT22;9765;52.354;20.884;2022-10-19T11:06:20;12.50;99.90
19263;DHT22;9765;52.354;20.884;2022-10-19T11:08:50;12.60;99.90
19263;DHT22;9765;52.354;20.884;2022-10-19T11:11:23;12.80;99.90
19263;DHT22;9765;52.354;20.884;2022-10-19T11:13:55;13.00;99.90
19263;DHT22;9765;52.354;20.884;2022-10-19T11:16:28;13.20;99.90
19263;DHT22;9765;52.354;20.884;2022-10-19T11:19:01;13.40;99.90
19263;DHT22;9765;52.354;20.884;2022-10-19T11:21:35;13.30;99.90
19263;DHT22;9765;52.354;20.884;2022-10-19T11:24:08;13.30;99.90
19263;DHT22;9765;52.354;20.884;2022-10-19T11:26:55;13.30;99.90
19263;DHT22;9765;52.354;20.884;2022-10-19T11:29:38;13.20;99.90
19263;DHT22;9765;52.354;20.884;2022-10-19T11:32:21;13.30;99.90
19263;DHT22;9765;52.354;20.884;2022-10-19T11:35:02;13.40;99.90
19263;DHT22;9765;52.354;20.884;2022-10-19T11:37:35;13.40;99.90
19263;DHT22;9765;52.354;20.884;2022-10-19T11:40:09;14.20;99.90
19263;DHT22;9765;52.354;20.884;2022-10-19T11:42:48;13.40;99.90
19263;DHT22;9765;52.354;20.884;2022-10-19T11:45:27;13.30;99.90
19263;DHT22;9765;52.354;20.884;2022-10-19T11:48:25;13.20;99.90
19263;DHT22;9765;52.354;20.884;2022-10-19T11:51:00;13.20;99.90
19263;DHT22;9765;52.354;20.884;2022-10-19T11:53:36;13.20;99.90
19263;DHT22;9765;52.354;20.884;2022-10-19T11:56:09;13.20;99.90
19263;DHT22;9765;52.354;20.884;2022-10-19T11:58:56;13.20;99.90
19263;DHT22;9765;52.354;20.884;2022-10-19T12:01:33;13.20;99.90
19263;DHT22;9765;52.354;20.884;2022-10-19T12:04:26;13.40;99.90
19263;DHT22;9765;52.354;20.884;2022-10-19T12:07:05;13.10;99.90
19263;DHT22;9765;52.354;20.884;2022-10-19T12:09:47;13.00;99.90
19263;DHT22;9765;52.354;20.884;2022-10-19T12:12:24;13.00;99.90
19263;DHT22;9765;52.354;20.884;2022-10-19T12:15:02;12.90;99.90
19263;DHT22;9765;52.354;20.884;2022-10-19T12:17:34;12.90;99.90
19263;DHT22;9765;52.354;20.884;2022-10-19T12:20:07;12.70;99.90
19263;DHT22;9765;52.354;20.884;2022-10-19T12:22:35;12.70;99.90
19263;DHT22;9765;52.354;20.884;2022-10-19T12:25:03;12.60;99.90
19263;DHT22;9765;52.354;20.884;2022-10-19T12:27:33;12.60;99.90
19263;DHT22;9765;52.354;20.884;2022-10-19T12:30:05;12.60;99.90
19263;DHT22;9765;52.354;20.884;2022-10-19T12:32:38;12.50;99.90
19263;DHT22;9765;52.354;20.884;2022-10-19T12:35:22;12.40;99.90
19263;DHT22;9765;52.354;20.884;2022-10-19T12:37:56;12.40;99.90
19263;DHT22;9765;52.354;20.884;2022-10-19T12:40:27;13.00;99.90
19263;DHT22;9765;52.354;20.884;2022-10-19T12:43:00;12.60;99.90
19263;DHT22;9765;52.354;20.884;2022-10-19T12:45:30;12.60;99.90
19263;DHT22;9765;52.354;20.884;2022-10-19T12:48:21;12.60;99.90
19263;DHT22;9765;52.354;20.884;2022-10-19T12:51:07;12.60;99.90
19263;DHT22;9765;52.354;20.884;2022-10-19T12:53:38;12.70;99.90
19263;DHT22;9765;52.354;20.884;2022-10-19T12:56:19;12.70;99.90
19263;DHT22;9765;52.354;20.884;2022-10-19T12:58:52;12.80;99.90
19263;DHT22;9765;52.354;20.884;2022-10-19T13:01:25;12.70;99.90
19263;DHT22;9765;52.354;20.884;2022-10-19T13:04:07;12.70;99.90
19263;DHT22;9765;52.354;20.884;2022-10-19T13:06:37;12.70;99.90
19263;DHT22;9765;52.354;20.884;2022-10-19T13:09:07;12.80;99.90
19263;DHT22;9765;52.354;20.884;2022-10-19T13:11:36;12.90;99.90
19263;DHT22;9765;52.354;20.884;2022-10-19T13:14:42;12.90;99.90
19263;DHT22;9765;52.354;20.884;2022-10-19T13:17:37;13.00;99.90
19263;DHT22;9765;52.354;20.884;2022-10-19T13:23:38;13.00;99.90
19263;DHT22;9765;52.354;20.884;2022-10-19T13:26:30;12.90;99.90
19263;DHT22;9765;52.354;20.884;2022-10-19T13:28:57;12.90;99.90
19263;DHT22;9765;52.354;20.884;2022-10-19T13:31:27;12.70;99.90
19263;DHT22;9765;52.354;20.884;2022-10-19T13:33:54;12.50;99.90
19263;DHT22;9765;52.354;20.884;2022-10-19T13:36:22;12.40;99.90
19263;DHT22;9765;52.354;20.884;2022-10-19T13:39:13;12.30;99.90
19263;DHT22;9765;52.354;20.884;2022-10-19T13:41:51;12.20;99.90
19263;DHT22;9765;52.354;20.884;2022-10-19T13:44:23;12.20;99.90
19263;DHT22;9765;52.354;20.884;2022-10-19T13:47:08;12.10;99.90
19263;DHT22;9765;52.354;20.884;2022-10-19T13:52:54;11.90;99.90
19263;DHT22;9765;52.354;20.884;2022-10-19T13:55:55;11.80;99.90
19263;DHT22;9765;52.354;20.884;2022-10-19T14:01:52;11.50;99.90
19263;DHT22;9765;52.354;20.884;2022-10-19T14:04:29;11.40;99.90
19263;DHT22;9765;52.354;20.884;2022-10-19T14:07:06;11.30;99.90
19263;DHT22;9765;52.354;20.884;2022-10-19T14:10:05;11.90;99.90
19263;DHT22;9765;52.354;20.884;2022-10-19T14:12:39;11.10;99.90
19263;DHT22;9765;52.354;20.884;2022-10-19T14:15:21;10.90;99.90
19263;DHT22;9765;52.354;20.884;2022-10-19T14:17:49;10.90;99.90
19263;DHT22;9765;52.354;20.884;2022-10-19T14:20:27;10.80;99.90
19263;DHT22;9765;52.354;20.884;2022-10-19T14:22:57;10.70;99.90
19263;DHT22;9765;52.354;20.884;2022-10-19T14:25:52;10.70;99.90
19263;DHT22;9765;52.354;20.884;2022-10-19T14:28:22;10.60;99.90
19263;DHT22;9765;52.354;20.884;2022-10-19T14:30:57;10.50;99.90
19263;DHT22;9765;52.354;20.884;2022-10-19T14:33:24;10.50;99.90
19263;DHT22;9765;52.354;20.884;2022-10-19T14:35:53;10.50;99.90
19263;DHT22;9765;52.354;20.884;2022-10-19T14:38:25;10.40;99.90
19263;DHT22;9765;52.354;20.884;2022-10-19T14:40:56;10.40;99.90
19263;DHT22;9765;52.354;20.884;2022-10-19T14:43:27;10.40;99.90
19263;DHT22;9765;52.354;20.884;2022-10-19T14:46:18;10.30;99.90
19263;DHT22;9765;52.354;20.884;2022-10-19T14:48:46;10.30;99.90
19263;DHT22;9765;52.354;20.884;2022-10-19T14:51:23;10.20;99.90
19263;DHT22;9765;52.354;20.884;2022-10-19T14:53:56;10.20;99.90
19263;DHT22;9765;52.354;20.884;2022-10-19T14:56:30;10.10;99.90
19263;DHT22;9765;52.354;20.884;2022-10-19T14:59:01;10.00;99.90
19263;DHT22;9765;52.354;20.884;2022-10-19T15:01:28;10.00;99.90
